Time;durP1;ratioP1;P1;durP2;ratioP2;P2;SDS_P1;SDS_P2;PMS_P1;PMS_P2;Temp;Humidity;BMP_temperature;BMP_pressure;BME280_temperature;BME280_humidity;BME280_pressure;Samples;Min_cycle;Max_cycle;Signal;HPM_P1;HPM_P2
2022/07/29 00:05:46;;;;;;;11.75;5.67;;;;;;;15.97;79.01;99329.41;4231939;83;21467;-82
2022/07/29 00:11:48;;;;;;;9.78;5.67;;;;;;;16.02;79.54;99330.37;4160028;84;21496;-82
2022/07/29 00:17:49;;;;;;;9.60;6.15;;;;;;;16.06;79.97;99326.98;4204656;83;21369;-82
2022/07/29 00:23:51;;;;;;;8.98;5.35;;;;;;;16.05;80.07;99330.36;4209236;83;21007;-82
2022/07/29 00:29:52;;;;;;;9.18;5.62;;;;;;;16.08;80.39;99328.17;4206270;83;21073;-82
2022/07/29 00:35:53;;;;;;;7.78;5.60;;;;;;;16.10;80.51;99331.30;4196990;83;21045;-82
2022/07/29 00:41:54;;;;;;;11.33;5.10;;;;;;;16.10;80.42;99323.63;4151333;83;20975;-82
2022/07/29 00:47:56;;;;;;;8.60;4.87;;;;;;;16.08;80.28;99327.38;4148425;84;21047;-82
2022/07/29 00:53:57;;;;;;;12.07;5.58;;;;;;;16.06;80.00;99331.13;4183279;84;21804;-82
2022/07/29 00:59:59;;;;;;;8.58;5.03;;;;;;;16.06;79.97;99315.94;4135822;84;21032;-82
2022/07/29 01:06:00;;;;;;;9.10;4.72;;;;;;;16.00;79.80;99316.17;4144231;84;20988;-82
2022/07/29 01:12:04;;;;;;;7.53;4.58;;;;;;;16.02;80.11;99312.42;4142665;84;21059;-84
2022/07/29 01:18:26;;;;;;;8.00;4.72;;;;;;;15.98;80.07;99309.67;4153952;85;21587;-82
2022/07/29 01:24:35;;;;;;;8.88;5.00;;;;;;;15.94;80.17;99307.54;4137900;84;21054;-83
2022/07/29 01:30:40;;;;;;;7.97;4.62;;;;;;;15.86;80.14;99307.97;4064557;86;21033;-82
2022/07/29 01:36:46;;;;;;;7.60;5.17;;;;;;;15.82;80.41;99299.69;4077473;85;21050;-82
2022/07/29 01:42:52;;;;;;;9.48;4.90;;;;;;;15.82;80.56;99301.69;4192210;82;21076;-82
2022/07/29 01:49:20;;;;;;;10.60;5.43;;;;;;;15.74;80.54;99305.05;4179602;84;21426;-83
2022/07/29 01:55:28;;;;;;;11.15;5.20;;;;;;;15.74;80.70;99301.53;4144797;84;21103;-83
2022/07/29 02:01:32;;;;;;;9.80;5.58;;;;;;;15.70;80.76;99298.78;4124299;84;28352;-83
2022/07/29 02:07:34;;;;;;;9.25;4.75;;;;;;;15.64;80.56;99297.63;4088970;86;21091;-84
2022/07/29 02:13:37;;;;;;;11.57;4.40;;;;;;;15.56;80.54;99298.26;4090267;86;21056;-82
2022/07/29 02:19:40;;;;;;;11.70;4.70;;;;;;;15.47;80.40;99295.73;4101180;86;21089;-83
2022/07/29 02:25:43;;;;;;;8.25;4.00;;;;;;;15.39;80.48;99281.77;4096049;86;21154;-82
2022/07/29 02:31:47;;;;;;;8.25;4.03;;;;;;;15.32;80.41;99268.75;4086487;86;21582;-83
2022/07/29 02:38:50;;;;;;;11.03;4.92;;;;;;;15.28;80.53;99261.09;4100483;84;21042;-82
2022/07/29 02:43:58;;;;;;;8.60;4.05;;;;;;;15.16;80.50;99271.77;4158789;83;21038;-82
2022/07/29 02:50:11;;;;;;;7.07;4.47;;;;;;;15.14;80.75;99277.66;4151544;84;21038;-85
2022/07/29 02:56:16;;;;;;;11.40;4.97;;;;;;;15.13;80.78;99266.44;4155701;84;21325;-82
2022/07/29 03:02:20;;;;;;;8.28;4.22;;;;;;;15.06;80.82;99269.23;4159378;84;21062;-81
2022/07/29 03:08:22;;;;;;;10.25;4.10;;;;;;;14.99;80.83;99259.59;4146269;84;21046;-82
2022/07/29 03:14:25;;;;;;;8.20;4.35;;;;;;;14.85;80.99;99252.73;4141142;84;21031;-83
2022/07/29 03:20:27;;;;;;;8.13;4.45;;;;;;;14.71;81.63;99261.60;4150018;84;21902;-82
2022/07/29 03:26:28;;;;;;;8.95;3.92;;;;;;;14.59;81.68;99268.33;4151660;84;21567;-82
2022/07/29 03:32:29;;;;;;;13.22;5.05;;;;;;;14.59;81.93;99271.66;4153445;84;21546;-82
2022/07/29 03:38:36;;;;;;;8.93;4.30;;;;;;;14.59;82.03;99264.77;4146592;84;21103;-84
2022/07/29 03:44:42;;;;;;;6.75;4.72;;;;;;;14.60;82.28;99258.06;4114908;85;21046;-81
2022/07/29 03:50:44;;;;;;;8.78;4.35;;;;;;;14.60;82.57;99265.75;4115888;85;22283;-81
2022/07/29 03:56:48;;;;;;;8.65;4.33;;;;;;;14.64;82.80;99269.30;4114632;85;21090;-82
2022/07/29 04:02:49;;;;;;;10.58;4.33;;;;;;;14.64;82.48;99274.02;4110018;85;21055;-81
2022/07/29 04:08:52;;;;;;;10.28;3.92;;;;;;;14.64;82.67;99289.17;4118025;85;21632;-82
2022/07/29 04:14:53;;;;;;;8.45;4.08;;;;;;;14.72;83.11;99284.63;4119121;85;21566;-82
2022/07/29 04:20:54;;;;;;;6.15;3.83;;;;;;;14.80;83.09;99281.30;4109612;85;21110;-82
2022/07/29 04:26:56;;;;;;;7.30;3.58;;;;;;;14.87;83.28;99276.55;4111225;85;21105;-81
2022/07/29 04:32:58;;;;;;;5.28;3.35;;;;;;;14.95;83.03;99280.08;4120138;85;21055;-83
2022/07/29 04:39:03;;;;;;;6.20;3.30;;;;;;;15.03;83.14;99270.61;4112299;85;21113;-82
2022/07/29 04:45:03;;;;;;;5.67;3.55;;;;;;;15.13;83.30;99268.41;4128571;85;21026;-80
2022/07/29 04:51:04;;;;;;;6.55;3.47;;;;;;;15.23;83.23;99264.25;4114051;85;21007;-81
2022/07/29 04:57:05;;;;;;;6.17;3.17;;;;;;;15.36;83.14;99268.74;4109499;85;20988;-82
2022/07/29 05:03:07;;;;;;;5.75;3.22;;;;;;;15.47;83.12;99256.48;4111394;85;21098;-81
2022/07/29 05:09:08;;;;;;;5.95;3.50;;;;;;;15.57;83.03;99254.29;4111540;85;21094;-82
2022/07/29 05:15:10;;;;;;;7.62;3.95;;;;;;;15.68;82.95;99256.98;4118102;85;21099;-82
2022/07/29 05:21:12;;;;;;;7.50;3.20;;;;;;;15.82;82.64;99267.19;4125140;85;21071;-82
2022/07/29 05:27:13;;;;;;;8.28;3.72;;;;;;;15.92;82.59;99250.55;4115133;85;21077;-82
2022/07/29 05:33:14;;;;;;;7.70;3.50;;;;;;;16.08;82.54;99259.13;4114334;85;21031;-83
2022/07/29 05:39:16;;;;;;;5.37;2.95;;;;;;;16.32;82.37;99262.29;4121994;84;21054;-82
2022/07/29 05:45:17;;;;;;;7.08;2.95;;;;;;;16.58;82.28;99259.55;4160099;84;21035;-83
2022/07/29 05:51:18;;;;;;;6.20;3.30;;;;;;;16.75;81.87;99264.92;4137698;84;21046;-82
2022/07/29 05:57:23;;;;;;;7.60;3.37;;;;;;;16.90;81.60;99260.81;4136782;84;21153;-83
2022/07/29 06:03:25;;;;;;;6.42;2.90;;;;;;;17.05;81.46;99257.31;4106480;85;21080;-81
2022/07/29 06:09:26;;;;;;;8.08;3.47;;;;;;;17.21;81.27;99266.61;4117280;85;21035;-82
2022/07/29 06:15:28;;;;;;;8.35;3.62;;;;;;;17.42;80.91;99256.48;4169994;84;21015;-81
2022/07/29 06:21:30;;;;;;;8.13;3.33;;;;;;;17.58;80.55;99252.56;4174319;84;21102;-84
2022/07/29 06:27:32;;;;;;;6.90;3.12;;;;;;;17.83;80.43;99253.02;4178220;84;21043;-83
2022/07/29 06:33:33;;;;;;;5.00;2.87;;;;;;;18.06;80.07;99257.22;4173014;84;21050;-83
2022/07/29 06:39:36;;;;;;;9.60;3.42;;;;;;;18.38;79.76;99259.73;4191586;83;21028;-83
2022/07/29 06:45:40;;;;;;;8.43;3.20;;;;;;;18.68;79.43;99266.53;4179698;84;21669;-82
2022/07/29 06:51:42;;;;;;;8.45;3.47;;;;;;;18.95;78.99;99263.69;4181002;84;21051;-83
2022/07/29 06:57:44;;;;;;;6.97;3.72;;;;;;;19.20;78.51;99264.63;4174466;84;20995;-83
2022/07/29 07:03:45;;;;;;;7.92;4.00;;;;;;;19.50;78.03;99269.98;4176885;84;21075;-85
2022/07/29 07:09:47;;;;;;;8.15;3.65;;;;;;;19.88;77.58;99265.01;4179208;84;21087;-84
2022/07/29 07:15:48;;;;;;;8.03;3.35;;;;;;;20.25;77.08;99262.39;4173642;84;21062;-83
2022/07/29 07:21:50;;;;;;;6.15;3.40;;;;;;;20.60;76.52;99252.41;4177623;84;21074;-83
2022/07/29 07:27:51;;;;;;;7.58;3.37;;;;;;;20.85;75.88;99255.34;4179867;84;21043;-82
2022/07/29 07:33:53;;;;;;;6.22;3.02;;;;;;;21.10;75.23;99248.53;4190915;84;20996;-85
2022/07/29 07:39:54;;;;;;;4.70;2.90;;;;;;;21.50;73.45;99253.98;4130621;84;21019;-85
2022/07/29 07:45:55;;;;;;;7.10;2.60;;;;;;;21.74;73.92;99258.81;4167858;85;21022;-87
2022/07/29 07:51:57;;;;;;;5.72;2.50;;;;;;;21.96;73.06;99252.02;4135298;85;21026;-85
2022/07/29 07:57:58;;;;;;;6.75;2.92;;;;;;;22.50;71.90;99253.29;4127202;85;21058;-84
2022/07/29 08:03:59;;;;;;;6.05;2.77;;;;;;;23.05;71.97;99256.81;4137788;85;21676;-84
2022/07/29 08:10:02;;;;;;;4.70;2.92;;;;;;;23.40;70.86;99250.61;4138877;85;21634;-84
2022/07/29 08:16:14;;;;;;;7.62;3.27;;;;;;;23.71;70.29;99252.83;4204999;83;21028;-84
2022/07/29 08:22:16;;;;;;;4.50;2.70;;;;;;;23.85;69.44;99254.45;4122297;85;21058;-86
2022/07/29 08:28:17;;;;;;;5.80;2.77;;;;;;;23.89;67.28;99245.33;4131592;85;21046;-85
2022/07/29 08:34:18;;;;;;;8.38;3.08;;;;;;;23.95;67.61;99246.89;4203194;83;21119;-86
2022/07/29 08:40:21;;;;;;;2.58;2.37;;;;;;;24.05;67.23;99249.32;4200276;83;21012;-85
2022/07/29 08:46:23;;;;;;;5.45;2.72;;;;;;;24.22;66.62;99245.65;4111474;85;21026;-84
2022/07/29 08:52:26;;;;;;;6.00;3.35;;;;;;;24.21;65.98;99241.31;4157350;84;21812;-85
2022/07/29 08:58:33;;;;;;;5.95;3.15;;;;;;;24.34;64.98;99244.14;4159974;84;21072;-82
2022/07/29 09:04:36;;;;;;;5.95;3.55;;;;;;;24.35;65.34;99240.09;4150763;84;21034;-82
2022/07/29 09:10:38;;;;;;;3.22;2.83;;;;;;;24.54;64.73;99238.15;4149102;84;21118;-82
2022/07/29 09:16:55;;;;;;;5.40;2.87;;;;;;;24.65;64.21;99223.85;4147403;84;21045;-83
2022/07/29 09:22:56;;;;;;;3.83;2.58;;;;;;;24.88;62.61;99239.94;4146851;84;21078;-82
2022/07/29 09:28:59;;;;;;;3.70;2.70;;;;;;;24.88;62.61;99239.94;4153660;84;21514;-82
2022/07/29 09:35:20;;;;;;;6.50;2.85;;;;;;;25.28;62.51;99231.53;4152899;84;21058;-83
2022/07/29 09:41:22;;;;;;;3.50;2.47;;;;;;;25.72;62.51;99228.54;4128695;84;22017;-82
2022/07/29 09:47:29;;;;;;;7.00;2.70;;;;;;;26.20;61.56;99213.28;4113509;85;21087;-83
2022/07/29 09:53:38;;;;;;;7.25;2.75;;;;;;;26.47;60.15;99201.28;4105976;85;21539;-83
2022/07/29 09:59:39;;;;;;;5.78;2.55;;;;;;;26.70;60.19;99201.17;4114362;85;21043;-83
2022/07/29 10:05:41;;;;;;;4.03;2.72;;;;;;;27.30;59.60;99196.00;4119343;85;21083;-83
2022/07/29 10:11:47;;;;;;;6.28;2.95;;;;;;;27.72;59.15;99180.27;4112418;85;21035;-83
2022/07/29 10:17:48;;;;;;;7.50;3.27;;;;;;;27.85;57.34;99175.88;4108392;85;21090;-84
2022/07/29 10:23:50;;;;;;;4.15;2.60;;;;;;;27.86;56.30;99176.67;4102861;85;21383;-82
2022/07/29 10:29:51;;;;;;;6.08;2.40;;;;;;;28.18;55.31;99178.46;4099753;85;21102;-84
2022/07/29 10:36:01;;;;;;;6.05;2.98;;;;;;;28.27;55.99;99181.93;4113285;85;21448;-84
2022/07/29 10:42:23;;;;;;;4.37;2.60;;;;;;;28.10;54.59;99173.09;4084434;84;39684;-82
2022/07/29 10:48:26;;;;;;;5.03;2.83;;;;;;;28.22;51.09;99169.95;4170312;84;21048;-83
2022/07/29 10:54:47;;;;;;;3.40;2.30;;;;;;;28.58;47.96;99156.03;4164295;84;21989;-84
2022/07/29 11:00:51;;;;;;;6.62;2.92;;;;;;;27.71;49.78;99164.02;4165631;84;21585;-84
2022/07/29 11:07:04;;;;;;;4.20;2.80;;;;;;;27.22;51.01;99160.45;4175475;84;21070;-85
2022/07/29 11:13:05;;;;;;;4.17;2.60;;;;;;;27.63;51.88;99151.61;4166729;84;21023;-82
2022/07/29 11:19:18;;;;;;;4.17;2.47;;;;;;;27.48;51.93;99150.23;4164788;84;20991;-82
2022/07/29 11:25:19;;;;;;;4.78;2.95;;;;;;;27.57;51.87;99152.16;4165493;84;21071;-83
2022/07/29 11:31:44;;;;;;;5.37;2.77;;;;;;;28.52;52.15;99148.91;4159492;84;21000;-84
2022/07/29 11:37:46;;;;;;;3.25;2.20;;;;;;;29.30;51.68;99137.14;4161846;84;21019;-82
2022/07/29 11:43:54;;;;;;;3.67;2.40;;;;;;;29.90;50.85;99126.38;4179961;83;20983;-83
2022/07/29 11:49:58;;;;;;;4.97;2.87;;;;;;;30.10;50.22;99119.86;4202113;83;21022;-83
2022/07/29 11:56:00;;;;;;;7.58;2.70;;;;;;;30.15;49.88;99124.11;4195916;83;21045;-84
2022/07/29 12:02:02;;;;;;;4.47;2.60;;;;;;;29.98;49.78;99121.83;4196678;83;21047;-84
2022/07/29 12:08:21;;;;;;;4.12;2.45;;;;;;;29.85;49.40;99127.11;4167777;83;21055;-83
2022/07/29 12:14:31;;;;;;;9.00;2.37;;;;;;;29.58;49.10;99109.95;4196364;83;21054;-82
2022/07/29 12:20:33;;;;;;;4.80;2.70;;;;;;;29.35;49.16;99097.70;4144796;84;21662;-82
2022/07/29 12:26:38;;;;;;;3.55;2.33;;;;;;;28.94;47.69;99095.62;4184000;83;21054;-83
2022/07/29 12:32:46;;;;;;;3.45;2.50;;;;;;;28.51;48.16;99093.08;4181750;83;21034;-84
2022/07/29 12:38:47;;;;;;;3.42;2.35;;;;;;;28.40;48.48;99088.06;4199267;83;21098;-83
2022/07/29 12:44:51;;;;;;;3.83;2.77;;;;;;;28.29;48.76;99085.11;4179676;83;21067;-83
2022/07/29 12:50:55;;;;;;;8.10;3.27;;;;;;;28.23;48.46;99076.45;4129136;85;21098;-83
2022/07/29 12:57:00;;;;;;;4.37;2.83;;;;;;;28.01;48.70;99071.92;4129452;85;21022;-82
2022/07/29 13:03:01;;;;;;;4.60;2.98;;;;;;;27.77;48.52;99067.09;4131999;85;21058;-83
2022/07/29 13:09:10;;;;;;;5.40;2.35;;;;;;;27.55;48.65;99063.29;4140505;85;21090;-82
2022/07/29 13:15:15;;;;;;;3.72;2.70;;;;;;;27.46;48.94;99060.59;4180691;84;21142;-83
2022/07/29 13:21:17;;;;;;;4.92;2.60;;;;;;;27.51;49.11;99063.52;4133954;85;22231;-84
2022/07/29 13:27:22;;;;;;;6.90;2.10;;;;;;;27.44;48.89;99057.49;4206585;83;21033;-82
2022/07/29 13:33:23;;;;;;;4.70;2.77;;;;;;;27.39;49.37;99054.73;4201283;83;21028;-83
2022/07/29 13:39:25;;;;;;;7.25;2.40;;;;;;;27.41;49.58;99043.79;4204090;83;21036;-83
2022/07/29 13:45:26;;;;;;;4.83;2.58;;;;;;;27.44;49.54;99030.16;4207636;83;21080;-84
2022/07/29 13:51:27;;;;;;;5.35;1.98;;;;;;;27.51;49.70;99013.53;4214800;82;21082;-86
2022/07/29 14:03:45;;;;;;;5.17;2.40;;;;;;;27.29;49.75;99015.99;4677469;74;22831;-85
2022/07/29 14:09:47;;;;;;;3.87;2.47;;;;;;;27.01;49.98;99018.33;4598173;75;21030;-83
2022/07/29 14:15:48;;;;;;;4.55;2.70;;;;;;;26.91;50.30;99007.66;4604226;75;20951;-82
2022/07/29 14:21:49;;;;;;;5.42;2.65;;;;;;;26.94;50.36;98995.45;4587277;75;21761;-82
2022/07/29 14:27:52;;;;;;;5.00;2.85;;;;;;;27.02;50.39;98995.98;4593521;75;20955;-82
2022/07/29 14:33:54;;;;;;;3.45;2.47;;;;;;;27.13;50.21;98988.36;4592006;75;21654;-83
2022/07/29 14:39:59;;;;;;;3.83;3.00;;;;;;;27.00;50.31;98998.50;4585164;75;21002;-82
2022/07/29 14:45:58;;;;;;;4.25;2.60;;;;;;;26.71;50.25;98978.86;4587915;75;20999;-83
2022/07/29 14:51:59;;;;;;;6.03;2.98;;;;;;;26.43;50.35;98967.73;4591204;75;21019;-83
2022/07/29 14:58:00;;;;;;;4.60;2.90;;;;;;;26.12;50.61;98962.53;4602235;75;21072;-82
2022/07/29 15:04:02;;;;;;;6.42;2.55;;;;;;;25.89;50.69;98956.30;4588347;75;21030;-82
2022/07/29 15:10:05;;;;;;;3.95;2.60;;;;;;;25.79;50.95;98972.28;4594818;75;20971;-84
2022/07/29 15:16:06;;;;;;;3.52;2.77;;;;;;;25.58;51.24;98980.34;4591138;75;22230;-82
2022/07/29 15:22:08;;;;;;;7.62;2.98;;;;;;;25.58;51.42;99013.36;4584966;75;20984;-82
2022/07/29 15:28:10;;;;;;;4.85;2.55;;;;;;;25.48;51.80;99008.28;4595003;75;21019;-82
2022/07/29 15:34:11;;;;;;;3.75;2.50;;;;;;;25.38;52.04;99014.55;4590591;75;21045;-82
2022/07/29 15:40:19;;;;;;;4.78;3.08;;;;;;;25.15;52.64;98996.26;4625020;77;21456;-82
2022/07/29 15:52:43;;;;;;;9.98;3.40;;;;;;;24.77;55.17;99036.64;4593234;75;20956;-81
2022/07/29 15:58:44;;;;;;;8.53;3.92;;;;;;;24.25;57.23;99048.31;4491480;78;20990;-81
2022/07/29 16:04:46;;;;;;;10.18;4.50;;;;;;;23.61;59.13;99059.79;4407518;79;21473;-81
2022/07/29 16:10:47;;;;;;;7.20;3.90;;;;;;;22.63;61.87;99076.28;4282516;79;9999538;-81
2022/07/29 16:16:48;;;;;;;8.58;4.58;;;;;;;22.54;63.73;99090.16;4411676;79;21001;-82
2022/07/29 16:22:51;;;;;;;6.47;5.72;;;;;;;22.46;65.33;99110.34;4403970;79;21030;-81
2022/07/29 16:28:53;;;;;;;11.35;6.08;;;;;;;22.13;71.56;99143.98;4399282;79;21074;-81
2022/07/29 16:34:57;;;;;;;10.38;5.95;;;;;;;21.92;69.78;99153.02;4396446;79;21475;-81
2022/07/29 16:40:58;;;;;;;8.28;5.05;;;;;;;21.73;73.81;99155.57;4410839;79;21039;-81
2022/07/29 16:46:59;;;;;;;9.70;5.12;;;;;;;21.41;75.62;99153.56;4415899;79;20980;-81
2022/07/29 16:53:09;;;;;;;9.60;5.60;;;;;;;21.12;79.83;99154.25;4395320;79;21046;-81
2022/07/29 16:59:11;;;;;;;7.00;5.90;;;;;;;20.84;82.04;99140.50;4406094;78;21007;-80
2022/07/29 17:05:12;;;;;;;8.35;4.97;;;;;;;20.60;82.79;99139.77;4489614;77;21057;-80
2022/07/29 17:11:13;;;;;;;8.98;5.55;;;;;;;20.51;89.48;99143.80;4440119;78;21051;-83
2022/07/29 17:17:15;;;;;;;8.53;5.10;;;;;;;20.18;84.63;99136.11;4500378;77;20993;-82
2022/07/29 17:23:17;;;;;;;7.50;5.12;;;;;;;20.05;87.87;99115.75;4528701;77;21465;-80
2022/07/29 17:29:20;;;;;;;9.85;5.20;;;;;;;19.94;91.78;99101.34;4523583;77;20983;-81
2022/07/29 17:41:47;;;;;;;8.80;4.85;;;;;;;19.74;89.03;99070.11;4516384;77;20988;-83
2022/07/29 17:47:49;;;;;;;10.75;5.33;;;;;;;19.69;88.62;99051.97;4477235;78;21883;-82
2022/07/29 17:53:51;;;;;;;8.93;6.05;;;;;;;19.59;88.63;99036.97;4432663;78;21033;-84
2022/07/29 18:00:06;;;;;;;8.03;5.53;;;;;;;19.43;88.94;99032.78;4425649;79;21022;-82
2022/07/29 18:06:36;;;;;;;6.90;4.95;;;;;;;19.36;89.78;99036.51;4385826;80;20987;-80
2022/07/29 18:12:38;;;;;;;8.37;6.37;;;;;;;19.26;91.01;99061.11;4334945;78;10000422;-82
2022/07/29 18:18:39;;;;;;;7.03;5.75;;;;;;;19.30;91.43;99085.42;4504156;78;21245;-83
2022/07/29 18:24:41;;;;;;;6.20;4.85;;;;;;;19.29;91.60;99053.34;4490391;78;21552;-81
2022/07/29 18:30:43;;;;;;;7.33;4.22;;;;;;;19.27;95.41;99025.80;4438834;78;20976;-81
2022/07/29 18:36:45;;;;;;;5.62;3.80;;;;;;;19.10;98.91;99026.98;4408094;80;21944;-82
2022/07/29 18:42:47;;;;;;;4.92;4.30;;;;;;;18.86;100.00;99036.03;4332051;79;20999;-82
2022/07/29 18:48:48;;;;;;;5.50;3.55;;;;;;;18.58;98.58;99020.78;4395518;79;21030;-81
2022/07/29 18:54:51;;;;;;;3.40;3.00;;;;;;;18.47;99.91;99031.30;4447957;77;20994;-82
2022/07/29 19:00:52;;;;;;;4.15;3.42;;;;;;;18.44;98.94;99062.64;4390770;79;21531;-81
2022/07/29 19:06:54;;;;;;;4.62;3.50;;;;;;;18.37;97.16;99079.98;4422708;79;21039;-81
2022/07/29 19:12:57;;;;;;;4.65;3.37;;;;;;;18.30;97.48;99115.53;4244221;79;10000474;-82
2022/07/29 19:19:01;;;;;;;7.03;4.67;;;;;;;18.28;97.47;99155.94;4390112;79;21016;-81
2022/07/29 19:25:03;;;;;;;4.95;4.37;;;;;;;18.26;97.14;99132.81;4406597;79;20988;-81
2022/07/29 19:31:04;;;;;;;5.85;4.17;;;;;;;18.34;97.04;99147.31;4371028;79;21015;-81
2022/07/29 19:37:06;;;;;;;4.47;3.80;;;;;;;18.31;97.10;99142.03;4375739;79;20956;-82
2022/07/29 19:43:08;;;;;;;4.40;3.90;;;;;;;18.30;97.98;99129.98;4469681;78;21019;-82
2022/07/29 19:49:12;;;;;;;6.10;4.12;;;;;;;18.25;97.59;99111.06;4371734;79;21369;-82
2022/07/29 19:55:14;;;;;;;6.80;4.25;;;;;;;18.19;97.85;99106.63;4417064;79;21030;-81
2022/07/29 20:01:16;;;;;;;9.28;5.67;;;;;;;18.15;98.33;99096.19;4463056;78;20953;-82
2022/07/29 20:07:17;;;;;;;10.82;6.17;;;;;;;18.14;98.20;99085.53;4416379;78;20992;-82
2022/07/29 20:13:18;;;;;;;5.55;4.72;;;;;;;18.14;98.61;99081.38;4486752;79;20976;-82
2022/07/29 20:19:20;;;;;;;5.95;4.25;;;;;;;18.09;98.60;99077.70;4463398;76;20967;-81
2022/07/29 20:25:22;;;;;;;5.65;5.10;;;;;;;18.00;98.70;99071.34;4544509;77;21656;-82
2022/07/29 20:31:24;;;;;;;7.20;5.60;;;;;;;17.98;98.87;99067.44;4516456;76;21024;-82
2022/07/29 20:37:25;;;;;;;9.60;6.80;;;;;;;17.92;99.15;99049.72;4556300;76;21001;-81
2022/07/29 20:43:27;;;;;;;7.87;5.95;;;;;;;17.88;99.51;99049.80;4499172;76;20986;-81
2022/07/29 20:49:28;;;;;;;11.93;5.53;;;;;;;17.85;99.66;99047.09;4518776;76;21011;-81
2022/07/29 20:55:30;;;;;;;6.47;5.12;;;;;;;17.84;100.00;99045.50;4563744;76;20975;-81
2022/07/29 21:01:31;;;;;;;6.03;4.97;;;;;;;17.82;100.00;99035.47;4519571;76;21509;-84
2022/07/29 21:07:33;;;;;;;5.50;4.87;;;;;;;17.84;99.61;99044.12;4418180;77;21078;-84
2022/07/29 21:13:37;;;;;;;6.70;5.12;;;;;;;17.85;100.00;99046.49;4404757;79;21027;-83
2022/07/29 21:19:37;;;;;;;5.78;5.15;;;;;;;17.77;99.71;99063.05;4466680;77;21066;-83
2022/07/29 21:25:39;;;;;;;7.62;5.33;;;;;;;17.79;100.00;99052.30;4416622;77;21557;-84
2022/07/29 21:31:41;;;;;;;6.83;5.15;;;;;;;17.77;100.00;99051.97;4488200;77;21452;-84
2022/07/29 21:37:42;;;;;;;7.33;5.20;;;;;;;17.82;100.00;99059.77;4459023;77;21636;-83
2022/07/29 21:43:44;;;;;;;7.83;5.58;;;;;;;17.94;100.00;99073.63;4471025;77;20962;-84
2022/07/29 21:49:46;;;;;;;6.45;5.78;;;;;;;17.97;100.00;99076.94;4448948;77;21036;-84
2022/07/29 21:55:49;;;;;;;6.67;5.42;;;;;;;18.03;100.00;99076.63;4463000;77;21892;-83
2022/07/29 22:01:50;;;;;;;9.88;5.72;;;;;;;18.00;100.00;99083.02;4483391;77;22084;-83
2022/07/29 22:07:52;;;;;;;7.10;5.75;;;;;;;17.89;100.00;99097.64;4531869;77;21499;-83
2022/07/29 22:13:53;;;;;;;6.30;5.70;;;;;;;17.96;100.00;99095.53;4556350;76;21479;-84
2022/07/29 22:19:54;;;;;;;7.20;6.40;;;;;;;17.96;100.00;99097.53;4557927;76;20994;-83
2022/07/29 22:25:56;;;;;;;7.75;5.92;;;;;;;17.94;100.00;99085.50;4560877;76;21321;-84
2022/07/29 22:31:57;;;;;;;7.45;6.22;;;;;;;17.89;100.00;99069.95;4577892;76;21016;-83
2022/07/29 22:37:58;;;;;;;8.53;6.20;;;;;;;17.81;100.00;99067.91;4551665;76;21059;-84
2022/07/29 22:43:59;;;;;;;10.95;7.17;;;;;;;17.75;100.00;99049.42;4537070;76;21636;-83
2022/07/29 22:50:01;;;;;;;9.90;7.70;;;;;;;17.70;100.00;99048.51;4564631;76;21597;-83
2022/07/29 22:56:03;;;;;;;11.20;8.48;;;;;;;17.69;100.00;99035.29;4561942;76;20984;-84
2022/07/29 23:02:04;;;;;;;10.63;8.58;;;;;;;17.70;100.00;99026.36;4563764;76;21011;-83
2022/07/29 23:08:05;;;;;;;14.83;11.12;;;;;;;17.68;100.00;99018.48;4549060;76;21067;-83
2022/07/29 23:14:06;;;;;;;23.22;13.32;;;;;;;17.63;100.00;99009.89;4549067;76;21097;-84
2022/07/29 23:20:08;;;;;;;13.75;9.88;;;;;;;17.55;100.00;98989.86;4555367;76;20992;-83
2022/07/29 23:26:09;;;;;;;13.65;9.83;;;;;;;17.51;100.00;98989.12;4572245;76;20950;-83
2022/07/29 23:32:11;;;;;;;12.23;8.73;;;;;;;17.46;100.00;98968.08;4474814;76;21404;-84
2022/07/29 23:38:12;;;;;;;17.20;9.03;;;;;;;17.38;100.00;98959.67;4563094;76;21448;-83
2022/07/29 23:44:13;;;;;;;11.75;8.65;;;;;;;17.28;100.00;98950.34;4553130;76;21879;-83
2022/07/29 23:50:15;;;;;;;14.25;9.88;;;;;;;17.20;100.00;98936.45;4578815;76;21499;-83
2022/07/29 23:56:17;;;;;;;10.03;8.93;;;;;;;17.12;100.00;98916.42;4569105;76;21512;-83
